createdAt,value
2023-01-18T00:00:36.911Z,0
2023-01-18T00:01:46.089Z,0
2023-01-18T00:02:55.264Z,0
2023-01-18T00:04:04.433Z,0
2023-01-18T00:05:13.616Z,0
2023-01-18T00:06:22.782Z,0
2023-01-18T00:07:31.962Z,0
2023-01-18T00:08:41.132Z,0
2023-01-18T00:09:49.311Z,0
2023-01-18T00:10:58.495Z,0
2023-01-18T00:12:07.668Z,0
2023-01-18T00:13:15.868Z,0
2023-01-18T00:14:24.060Z,0
2023-01-18T00:15:33.253Z,0
2023-01-18T00:16:42.406Z,0
2023-01-18T00:17:50.595Z,0
2023-01-18T00:18:58.829Z,0
2023-01-18T00:20:08.011Z,0
2023-01-18T00:21:17.134Z,0
2023-01-18T00:22:26.307Z,0
2023-01-18T00:23:35.475Z,0
2023-01-18T00:24:44.650Z,0
2023-01-18T00:25:53.815Z,0
2023-01-18T00:27:03.010Z,0
2023-01-18T00:28:12.179Z,0
2023-01-18T00:29:21.352Z,0
2023-01-18T00:30:30.525Z,0
2023-01-18T00:31:39.697Z,0
2023-01-18T00:32:48.866Z,0
2023-01-18T00:33:57.050Z,0
2023-01-18T00:35:06.217Z,0
2023-01-18T00:36:15.402Z,0
2023-01-18T00:37:24.570Z,0
2023-01-18T00:38:33.749Z,0
2023-01-18T00:39:42.925Z,0
2023-01-18T00:40:52.101Z,0
2023-01-18T00:42:00.289Z,0
2023-01-18T00:43:08.471Z,0
2023-01-18T00:44:17.650Z,0
2023-01-18T00:45:26.823Z,0
2023-01-18T00:46:36.001Z,0
2023-01-18T00:47:45.175Z,0
2023-01-18T00:48:54.343Z,0
2023-01-18T00:50:03.520Z,0
2023-01-18T00:51:12.686Z,0
2023-01-18T00:52:21.879Z,0
2023-01-18T00:53:31.066Z,0
2023-01-18T00:54:40.205Z,0
2023-01-18T00:55:49.393Z,0
2023-01-18T00:56:58.561Z,0
2023-01-18T00:58:06.752Z,0
2023-01-18T00:59:15.921Z,0
2023-01-18T01:00:25.098Z,0
2023-01-18T01:01:34.347Z,0
2023-01-18T01:02:43.432Z,0
2023-01-18T01:03:52.614Z,0
2023-01-18T01:05:01.786Z,0
2023-01-18T01:06:09.973Z,0
2023-01-18T01:07:18.169Z,0
2023-01-18T01:08:26.362Z,0
2023-01-18T01:09:34.564Z,0
2023-01-18T01:10:43.725Z,0
2023-01-18T01:11:52.890Z,0
2023-01-18T01:13:02.080Z,0
2023-01-18T01:14:11.252Z,0
2023-01-18T01:15:20.421Z,0
2023-01-18T01:16:29.591Z,0
2023-01-18T01:17:38.766Z,0
2023-01-18T01:18:47.946Z,0
2023-01-18T01:19:57.120Z,0
2023-01-18T01:21:06.298Z,0
2023-01-18T01:22:15.502Z,0
2023-01-18T01:23:24.638Z,0
2023-01-18T01:24:32.831Z,0
2023-01-18T01:25:42.006Z,0
2023-01-18T01:26:51.178Z,0
2023-01-18T01:28:00.345Z,0
2023-01-18T01:29:09.524Z,0
2023-01-18T01:30:18.701Z,0
2023-01-18T01:31:27.859Z,0
2023-01-18T01:32:36.063Z,0
2023-01-18T01:33:44.251Z,0
2023-01-18T01:34:53.429Z,0
2023-01-18T01:36:02.602Z,0
2023-01-18T01:37:11.784Z,0
2023-01-18T01:38:20.954Z,0
2023-01-18T01:39:30.117Z,0
2023-01-18T01:40:39.297Z,0
2023-01-18T01:41:48.479Z,0
2023-01-18T01:42:57.641Z,0
2023-01-18T01:44:06.815Z,0
2023-01-18T01:45:15.980Z,0
2023-01-18T01:46:25.168Z,0
2023-01-18T01:47:34.330Z,0
2023-01-18T01:48:42.521Z,0
2023-01-18T01:49:51.692Z,0
2023-01-18T01:51:00.876Z,0
2023-01-18T01:52:10.059Z,0
2023-01-18T01:53:19.229Z,0
2023-01-18T01:54:28.388Z,0
2023-01-18T01:55:37.579Z,0
2023-01-18T01:56:45.772Z,0
2023-01-18T01:57:53.980Z,0
2023-01-18T01:59:02.152Z,0
2023-01-18T02:00:10.342Z,0
2023-01-18T02:01:19.507Z,0
2023-01-18T02:02:28.693Z,0
2023-01-18T02:03:37.858Z,0
2023-01-18T02:04:47.024Z,0
2023-01-18T02:05:56.217Z,0
2023-01-18T02:07:05.374Z,0
2023-01-18T02:08:14.549Z,0
2023-01-18T02:09:23.732Z,0
2023-01-18T02:10:32.899Z,0
2023-01-18T02:11:42.075Z,0
2023-01-18T02:12:51.243Z,0
2023-01-18T02:14:00.417Z,0
2023-01-18T02:15:08.625Z,0
2023-01-18T02:16:17.778Z,0
2023-01-18T02:17:26.949Z,0
2023-01-18T02:18:36.123Z,0
2023-01-18T02:19:45.300Z,0
2023-01-18T02:20:54.472Z,0
2023-01-18T02:22:03.644Z,0
2023-01-18T02:23:11.845Z,0
2023-01-18T02:24:20.031Z,0
2023-01-18T02:25:29.191Z,0
2023-01-18T02:26:37.398Z,0
2023-01-18T02:27:45.576Z,0
2023-01-18T02:28:54.765Z,0
2023-01-18T02:30:03.938Z,0
2023-01-18T02:31:13.115Z,0
2023-01-18T02:32:22.282Z,0
2023-01-18T02:33:31.452Z,0
2023-01-18T02:34:40.626Z,0
2023-01-18T02:35:49.838Z,0
2023-01-18T02:36:58.976Z,0
2023-01-18T02:38:08.156Z,0
2023-01-18T02:39:17.482Z,0
2023-01-18T02:40:26.488Z,0
2023-01-18T02:41:35.712Z,0
2023-01-18T02:42:43.862Z,0
2023-01-18T02:43:53.072Z,0
2023-01-18T02:45:02.237Z,0
2023-01-18T02:46:11.463Z,0
2023-01-18T02:47:20.550Z,0
2023-01-18T02:48:29.732Z,0
2023-01-18T02:49:38.970Z,0
2023-01-18T02:50:47.102Z,0
2023-01-18T02:51:56.287Z,0
2023-01-18T02:53:04.512Z,0
2023-01-18T02:54:13.633Z,0
2023-01-18T02:55:22.804Z,0
2023-01-18T02:56:31.973Z,0
2023-01-18T02:57:41.137Z,0
2023-01-18T02:59:59.502Z,0
2023-01-18T03:01:08.670Z,0
2023-01-18T03:02:17.842Z,0
2023-01-18T03:03:27.057Z,0
2023-01-18T03:04:36.190Z,0
2023-01-18T03:05:45.355Z,0
2023-01-18T03:06:54.543Z,0
2023-01-18T03:08:02.721Z,0
2023-01-18T03:09:11.912Z,0
2023-01-18T03:10:21.100Z,0
2023-01-18T03:11:30.238Z,0
2023-01-18T03:12:39.412Z,0
2023-01-18T03:13:48.592Z,0
2023-01-18T03:14:57.766Z,0
2023-01-18T03:16:05.964Z,0
2023-01-18T03:17:14.164Z,0
2023-01-18T03:18:22.352Z,0
2023-01-18T03:19:30.533Z,0
2023-01-18T03:20:39.709Z,0
2023-01-18T03:21:48.943Z,0
2023-01-18T03:22:58.051Z,0
2023-01-18T03:24:07.359Z,0
2023-01-18T03:25:16.398Z,0
2023-01-18T03:26:25.577Z,0
2023-01-18T03:27:34.751Z,0
2023-01-18T03:28:43.930Z,0
2023-01-18T03:29:53.200Z,0
2023-01-18T03:31:02.275Z,0
2023-01-18T03:32:11.444Z,0
2023-01-18T03:33:20.616Z,0
2023-01-18T03:34:28.804Z,0
2023-01-18T03:35:37.993Z,0
2023-01-18T03:36:47.166Z,0
2023-01-18T03:37:56.343Z,0
2023-01-18T03:39:05.514Z,0
2023-01-18T03:40:14.679Z,0
2023-01-18T03:41:23.857Z,0
2023-01-18T03:42:32.059Z,0
2023-01-18T03:43:40.238Z,0
2023-01-18T03:44:48.427Z,0
2023-01-18T03:45:56.621Z,0
2023-01-18T03:47:05.829Z,0
2023-01-18T03:48:14.990Z,0
2023-01-18T03:49:24.137Z,0
2023-01-18T03:50:33.309Z,0
2023-01-18T03:51:42.503Z,0
2023-01-18T03:52:51.767Z,0
2023-01-18T03:54:00.837Z,0
2023-01-18T03:55:10.000Z,0
2023-01-18T03:56:19.182Z,0
2023-01-18T03:57:28.359Z,0
2023-01-18T03:58:37.529Z,0
2023-01-18T03:59:46.705Z,0
2023-01-18T04:00:54.908Z,0
2023-01-18T04:02:04.082Z,0
2023-01-18T04:03:13.241Z,0
2023-01-18T04:04:22.416Z,0
2023-01-18T04:05:31.587Z,0
2023-01-18T04:06:40.762Z,0
2023-01-18T04:07:49.941Z,0
2023-01-18T04:08:58.135Z,0
2023-01-18T04:10:06.314Z,0
2023-01-18T04:11:15.504Z,0
2023-01-18T04:12:24.675Z,0
2023-01-18T04:13:33.858Z,0
2023-01-18T04:14:43.028Z,0
2023-01-18T04:15:52.191Z,0
2023-01-18T04:17:01.371Z,0
2023-01-18T04:18:10.548Z,0
2023-01-18T04:19:19.711Z,0
2023-01-18T04:20:28.892Z,0
2023-01-18T04:21:38.067Z,0
2023-01-18T04:22:47.240Z,0
2023-01-18T04:23:56.415Z,0
2023-01-18T04:25:04.588Z,0
2023-01-18T04:26:13.770Z,0
2023-01-18T04:27:22.949Z,0
2023-01-18T04:28:32.111Z,0
2023-01-18T04:29:41.319Z,0
2023-01-18T04:30:50.483Z,0
2023-01-18T04:31:59.634Z,0
2023-01-18T04:33:08.863Z,0
2023-01-18T04:34:18.014Z,0
2023-01-18T04:35:27.162Z,0
2023-01-18T04:36:36.325Z,0
2023-01-18T04:37:45.513Z,0
2023-01-18T04:38:54.679Z,0
2023-01-18T04:40:02.872Z,0
2023-01-18T04:41:11.086Z,0
2023-01-18T04:42:19.259Z,0
2023-01-18T04:43:27.452Z,0
2023-01-18T04:44:35.643Z,0
2023-01-18T04:45:44.805Z,0
2023-01-18T04:46:53.986Z,0
2023-01-18T04:48:03.162Z,0
2023-01-18T04:49:12.329Z,0
2023-01-18T04:50:21.509Z,0
2023-01-18T04:51:30.685Z,0
2023-01-18T04:52:39.854Z,0
2023-01-18T04:53:49.038Z,0
2023-01-18T04:54:58.199Z,0
2023-01-18T04:56:07.371Z,0
2023-01-18T04:57:16.545Z,0
2023-01-18T04:58:25.720Z,0
2023-01-18T04:59:33.910Z,0
2023-01-18T05:00:43.084Z,0
2023-01-18T05:01:52.255Z,0
2023-01-18T05:03:01.430Z,0
2023-01-18T05:04:10.606Z,0
2023-01-18T05:05:19.772Z,0
2023-01-18T05:06:28.960Z,0
2023-01-18T05:07:37.151Z,0
2023-01-18T05:08:45.336Z,0
2023-01-18T05:09:54.522Z,0
2023-01-18T05:11:03.855Z,0
2023-01-18T05:12:11.908Z,0
2023-01-18T05:13:21.070Z,0
2023-01-18T05:14:29.237Z,0
2023-01-18T05:15:38.423Z,0
2023-01-18T05:16:47.585Z,0
2023-01-18T05:17:56.758Z,0
2023-01-18T05:19:05.930Z,0
2023-01-18T05:20:15.102Z,0
2023-01-18T05:21:24.280Z,0
2023-01-18T05:22:33.457Z,0
2023-01-18T05:23:42.654Z,0
2023-01-18T05:24:51.799Z,0
2023-01-18T05:26:01.003Z,0
2023-01-18T05:27:10.172Z,0
2023-01-18T05:28:19.317Z,0
2023-01-18T05:29:27.514Z,0
2023-01-18T05:30:36.681Z,0
2023-01-18T05:31:45.867Z,0
2023-01-18T05:32:55.054Z,0
2023-01-18T05:34:04.217Z,0
2023-01-18T05:35:13.381Z,0
2023-01-18T05:36:21.582Z,0
2023-01-18T05:37:29.758Z,0
2023-01-18T05:38:37.952Z,0
2023-01-18T05:39:46.149Z,0
2023-01-18T05:40:55.320Z,0
2023-01-18T05:42:04.500Z,0
2023-01-18T05:43:13.685Z,0
2023-01-18T05:44:22.846Z,0
2023-01-18T05:45:32.010Z,0
2023-01-18T05:46:41.196Z,0
2023-01-18T05:47:50.363Z,0
2023-01-18T05:48:59.528Z,0
2023-01-18T05:50:08.719Z,0
2023-01-18T05:51:17.890Z,0
2023-01-18T05:52:27.064Z,0
2023-01-18T05:53:36.347Z,0
2023-01-18T05:54:44.419Z,0
2023-01-18T05:55:53.593Z,0
2023-01-18T05:57:02.764Z,0
2023-01-18T05:58:11.954Z,0
2023-01-18T05:59:21.128Z,0
2023-01-18T06:00:30.326Z,0
2023-01-18T06:01:39.455Z,0
2023-01-18T06:02:47.729Z,0
2023-01-18T06:03:55.882Z,0
2023-01-18T06:05:04.037Z,0
2023-01-18T06:06:12.228Z,0
2023-01-18T06:07:21.405Z,0
2023-01-18T06:08:30.615Z,0
2023-01-18T06:09:39.766Z,0
2023-01-18T06:10:48.925Z,0
2023-01-18T06:11:58.110Z,0
2023-01-18T06:13:07.267Z,0
2023-01-18T06:14:16.444Z,0
2023-01-18T06:15:25.613Z,0
2023-01-18T06:16:34.800Z,0
2023-01-18T06:17:43.962Z,0
2023-01-18T06:18:53.147Z,0
2023-01-18T06:20:02.314Z,0
2023-01-18T06:21:10.494Z,0
2023-01-18T06:22:19.758Z,0
2023-01-18T06:23:28.839Z,0
2023-01-18T06:24:38.022Z,0
2023-01-18T06:25:47.194Z,0
2023-01-18T06:26:56.391Z,0
2023-01-18T06:28:05.551Z,0
2023-01-18T06:29:14.715Z,0
2023-01-18T06:30:22.907Z,0
2023-01-18T06:32:40.275Z,0
2023-01-18T06:33:49.450Z,0
2023-01-18T06:34:58.628Z,0
2023-01-18T06:36:06.819Z,0
2023-01-18T06:37:15.015Z,0
2023-01-18T06:38:24.186Z,0
2023-01-18T06:39:33.355Z,0
2023-01-18T06:40:42.522Z,0
2023-01-18T06:41:51.685Z,0
2023-01-18T06:43:00.868Z,0
2023-01-18T06:44:10.054Z,0
2023-01-18T06:45:19.217Z,0
2023-01-18T06:46:28.390Z,0
2023-01-18T06:47:37.556Z,0
2023-01-18T06:48:46.731Z,3
2023-01-18T06:49:55.911Z,3
2023-01-18T06:51:05.086Z,3
2023-01-18T06:52:13.290Z,3
2023-01-18T06:53:22.495Z,3
2023-01-18T06:54:31.651Z,3
2023-01-18T06:55:40.797Z,3
2023-01-18T06:56:49.969Z,4
2023-01-18T06:57:59.136Z,4
2023-01-18T06:59:08.310Z,4
2023-01-18T07:00:16.534Z,4
2023-01-18T07:01:24.705Z,9
2023-01-18T07:02:33.869Z,9
2023-01-18T07:03:43.046Z,9
2023-01-18T07:04:52.219Z,5
2023-01-18T07:06:00.441Z,5
2023-01-18T07:08:17.778Z,6
2023-01-18T07:09:26.951Z,14
2023-01-18T07:10:36.133Z,23
2023-01-18T07:11:45.307Z,41
2023-01-18T07:12:54.467Z,32
2023-01-18T07:14:03.643Z,37
2023-01-18T07:15:12.827Z,37
2023-01-18T07:16:22.000Z,30
2023-01-18T07:17:31.174Z,34
2023-01-18T07:18:40.338Z,51
2023-01-18T07:19:49.523Z,69
2023-01-18T07:20:58.697Z,70
2023-01-18T07:22:06.878Z,83
2023-01-18T07:23:16.105Z,96
2023-01-18T07:24:25.227Z,114
2023-01-18T07:25:34.464Z,124
2023-01-18T07:26:43.625Z,133
2023-01-18T07:27:52.744Z,146
2023-01-18T07:29:01.951Z,169
2023-01-18T07:30:11.099Z,178
2023-01-18T07:31:19.332Z,192
2023-01-18T07:32:27.481Z,214
2023-01-18T07:33:35.693Z,224
2023-01-18T07:34:43.849Z,251
2023-01-18T07:35:53.037Z,265
2023-01-18T07:37:01.298Z,283
2023-01-18T07:38:10.471Z,302
2023-01-18T07:39:19.576Z,324
2023-01-18T07:40:28.759Z,351
2023-01-18T07:41:37.923Z,375
2023-01-18T07:42:47.093Z,380
2023-01-18T07:43:56.277Z,416
2023-01-18T07:45:05.497Z,439
2023-01-18T07:46:14.616Z,449
2023-01-18T07:47:23.805Z,476
2023-01-18T07:48:32.982Z,508
2023-01-18T07:49:42.205Z,523
2023-01-18T07:50:51.306Z,537
2023-01-18T07:51:59.517Z,573
2023-01-18T07:53:08.760Z,596
2023-01-18T07:54:17.852Z,637
2023-01-18T07:55:27.049Z,656
2023-01-18T07:56:36.208Z,679
2023-01-18T07:57:44.389Z,707
2023-01-18T07:58:52.615Z,735
2023-01-18T08:00:01.902Z,759
2023-01-18T08:01:10.920Z,778
2023-01-18T08:02:20.101Z,819
2023-01-18T08:03:28.458Z,843
2023-01-18T08:04:36.520Z,872
2023-01-18T08:05:45.670Z,883
2023-01-18T08:06:54.849Z,946
2023-01-18T08:08:04.077Z,965
2023-01-18T08:09:13.181Z,994
2023-01-18T08:10:22.361Z,999
2023-01-18T08:11:31.547Z,1052
2023-01-18T08:12:40.705Z,1080
2023-01-18T08:13:49.878Z,1111
2023-01-18T08:16:08.233Z,1192
2023-01-18T08:17:17.444Z,1186
2023-01-18T08:18:26.562Z,1209
2023-01-18T08:19:34.796Z,1232
2023-01-18T08:20:43.932Z,1265
2023-01-18T08:21:53.108Z,1292
2023-01-18T08:23:02.350Z,1303
2023-01-18T08:24:11.438Z,1340
2023-01-18T08:25:20.633Z,1372
2023-01-18T08:26:29.872Z,1404
2023-01-18T08:27:38.969Z,1433
2023-01-18T08:28:47.175Z,1444
2023-01-18T08:29:55.359Z,1460
2023-01-18T08:31:04.524Z,1502
2023-01-18T08:32:13.704Z,1528
2023-01-18T08:33:22.878Z,1537
2023-01-18T08:34:31.067Z,1571
2023-01-18T08:36:48.454Z,1665
2023-01-18T08:37:57.584Z,1656
2023-01-18T08:39:06.784Z,1682
2023-01-18T08:40:15.950Z,1684
2023-01-18T08:41:25.156Z,1769
2023-01-18T08:42:34.324Z,1778
2023-01-18T08:43:43.469Z,1828
2023-01-18T08:44:52.649Z,1873
2023-01-18T08:46:01.823Z,1843
2023-01-18T08:47:11.004Z,1948
2023-01-18T08:49:29.353Z,2022
2023-01-18T08:50:37.540Z,2012
2023-01-18T08:51:46.717Z,2062
2023-01-18T08:52:55.879Z,2111
2023-01-18T08:54:05.056Z,2145
2023-01-18T08:55:14.284Z,2223
2023-01-18T08:56:23.401Z,2214
2023-01-18T08:57:32.712Z,2169
2023-01-18T08:58:41.735Z,2252
2023-01-18T08:59:50.926Z,2597
2023-01-18T09:00:59.128Z,2493
2023-01-18T09:02:07.309Z,2429
2023-01-18T09:03:16.506Z,2385
2023-01-18T09:04:25.667Z,2360
2023-01-18T09:05:33.921Z,2260
2023-01-18T09:06:43.013Z,2574
2023-01-18T09:07:51.204Z,2537
2023-01-18T09:09:00.422Z,2788
2023-01-18T09:10:09.577Z,2810
2023-01-18T09:11:18.765Z,2734
2023-01-18T09:12:27.979Z,2929
2023-01-18T09:13:37.090Z,2908
2023-01-18T09:14:46.251Z,3244
2023-01-18T09:15:55.417Z,2882
2023-01-18T09:17:04.600Z,2707
2023-01-18T09:18:13.791Z,2804
2023-01-18T09:19:22.988Z,2686
2023-01-18T09:20:32.118Z,2555
2023-01-18T09:21:41.419Z,2770
2023-01-18T09:22:49.475Z,2779
2023-01-18T09:23:58.659Z,2793
2023-01-18T09:25:07.820Z,2813
2023-01-18T09:26:16.992Z,2746
2023-01-18T09:27:26.165Z,2809
2023-01-18T09:28:35.346Z,2642
2023-01-18T09:29:43.542Z,2874
2023-01-18T09:30:51.725Z,2921
2023-01-18T09:31:59.920Z,2889
2023-01-18T09:33:08.135Z,2972
2023-01-18T09:34:17.287Z,3160
2023-01-18T09:35:26.455Z,3200
2023-01-18T09:36:35.638Z,3410
2023-01-18T09:37:44.799Z,3130
2023-01-18T09:38:53.974Z,2736
2023-01-18T09:40:03.151Z,2920
2023-01-18T09:41:12.321Z,3207
2023-01-18T09:42:21.500Z,3041
2023-01-18T09:43:30.671Z,3013
2023-01-18T09:44:39.843Z,2941
2023-01-18T09:45:49.013Z,2850
2023-01-18T09:46:58.180Z,2731
2023-01-18T09:48:06.384Z,2968
2023-01-18T09:49:15.546Z,3032
2023-01-18T09:50:24.718Z,3002
2023-01-18T09:51:33.898Z,2916
2023-01-18T09:52:43.069Z,2924
2023-01-18T09:53:52.239Z,3113
2023-01-18T09:55:01.411Z,3020
2023-01-18T09:56:09.619Z,2805
2023-01-18T09:57:17.795Z,2753
2023-01-18T09:58:26.983Z,2923
2023-01-18T09:59:36.141Z,3229
2023-01-18T10:00:45.317Z,3174
2023-01-18T10:01:54.498Z,3621
2023-01-18T10:03:03.672Z,3041
2023-01-18T10:04:12.837Z,3081
2023-01-18T10:05:22.006Z,3569
2023-01-18T10:06:31.182Z,3577
2023-01-18T10:07:40.360Z,3116
2023-01-18T10:09:58.750Z,2642
2023-01-18T10:11:07.885Z,3560
2023-01-18T10:12:16.069Z,4171
2023-01-18T10:13:25.237Z,4315
2023-01-18T10:14:34.412Z,3789
2023-01-18T10:15:43.590Z,4012
2023-01-18T10:16:52.782Z,3764
2023-01-18T10:18:01.966Z,3387
2023-01-18T10:19:11.190Z,4153
2023-01-18T10:20:20.268Z,4950
2023-01-18T10:21:28.481Z,3912
2023-01-18T10:22:36.694Z,4228
2023-01-18T10:23:44.932Z,4664
2023-01-18T10:24:53.042Z,4675
2023-01-18T10:26:01.240Z,5984
2023-01-18T10:27:09.424Z,4027
2023-01-18T10:28:18.605Z,3690
2023-01-18T10:29:27.855Z,1251
2023-01-18T10:30:36.945Z,5426
2023-01-18T10:31:46.156Z,5155
2023-01-18T10:32:55.410Z,5529
2023-01-18T10:34:04.471Z,5135
2023-01-18T10:35:13.643Z,3541
2023-01-18T10:37:32.005Z,3516
2023-01-18T10:38:41.172Z,3854
2023-01-18T10:39:50.334Z,4653
2023-01-18T10:40:59.501Z,2957
2023-01-18T10:42:07.696Z,5466
2023-01-18T10:44:26.087Z,3599
2023-01-18T10:45:34.241Z,5257
2023-01-18T10:46:42.433Z,4480
2023-01-18T10:47:51.595Z,6736
2023-01-18T10:49:00.778Z,3866
2023-01-18T10:50:09.957Z,4651
2023-01-18T10:51:19.116Z,7263
2023-01-18T10:52:28.291Z,8714
2023-01-18T10:53:37.464Z,4102
2023-01-18T10:54:46.623Z,3839
2023-01-18T10:55:55.794Z,5583
2023-01-18T10:57:04.990Z,4560
2023-01-18T10:58:13.175Z,7051
2023-01-18T10:59:21.357Z,5760
2023-01-18T11:00:30.544Z,3478
2023-01-18T11:01:39.698Z,4391
2023-01-18T11:02:48.942Z,6135
2023-01-18T11:03:58.079Z,5199
2023-01-18T11:05:07.227Z,6352
2023-01-18T11:06:16.399Z,6516
2023-01-18T11:07:25.588Z,7450
2023-01-18T11:08:34.747Z,7337
2023-01-18T11:09:43.914Z,6986
2023-01-18T11:10:53.091Z,3693
2023-01-18T11:12:02.263Z,6828
2023-01-18T11:13:11.446Z,5053
2023-01-18T11:14:19.627Z,5441
2023-01-18T11:15:28.810Z,6622
2023-01-18T11:16:37.971Z,5388
2023-01-18T11:17:47.143Z,7170
2023-01-18T11:18:56.328Z,7176
2023-01-18T11:20:05.489Z,8702
2023-01-18T11:21:14.684Z,7032
2023-01-18T11:22:22.886Z,7637
2023-01-18T11:23:31.049Z,7873
2023-01-18T11:24:40.224Z,6291
2023-01-18T11:25:48.412Z,5270
2023-01-18T11:26:56.661Z,5579
2023-01-18T11:28:04.803Z,6973
2023-01-18T11:29:13.971Z,6594
2023-01-18T11:30:23.156Z,6309
2023-01-18T11:31:32.310Z,6387
2023-01-18T11:32:41.507Z,6224
2023-01-18T11:33:50.654Z,7242
2023-01-18T11:34:59.901Z,7047
2023-01-18T11:36:09.010Z,7020
2023-01-18T11:37:18.182Z,7081
2023-01-18T11:38:27.350Z,7354
2023-01-18T11:39:36.521Z,8102
2023-01-18T11:40:45.709Z,6954
2023-01-18T11:41:54.874Z,7632
2023-01-18T11:43:03.053Z,7183
2023-01-18T11:44:12.225Z,6707
2023-01-18T11:45:21.410Z,7705
2023-01-18T11:46:30.572Z,7220
2023-01-18T11:47:39.736Z,6645
2023-01-18T11:48:48.917Z,7282
2023-01-18T11:49:58.093Z,8519
2023-01-18T11:51:07.306Z,6249
2023-01-18T11:52:16.446Z,6750
2023-01-18T11:53:25.617Z,7654
2023-01-18T11:54:34.782Z,6904
2023-01-18T11:55:43.955Z,7261
2023-01-18T11:56:53.143Z,7387
2023-01-18T11:58:01.341Z,7639
2023-01-18T11:59:10.499Z,7605
2023-01-18T12:00:19.681Z,6495
2023-01-18T12:01:28.843Z,7049
2023-01-18T12:02:38.016Z,7800
2023-01-18T12:03:47.182Z,7055
2023-01-18T12:04:56.369Z,7022
2023-01-18T12:06:05.520Z,6848
2023-01-18T12:07:14.815Z,7519
2023-01-18T12:08:23.864Z,6358
2023-01-18T12:09:33.037Z,6750
2023-01-18T12:10:42.220Z,6695
2023-01-18T12:11:50.464Z,6967
2023-01-18T12:12:58.600Z,7413
2023-01-18T12:14:07.785Z,6910
2023-01-18T12:15:16.954Z,6983
2023-01-18T12:16:26.129Z,7243
2023-01-18T12:17:34.322Z,7437
2023-01-18T12:18:42.614Z,7656
2023-01-18T12:19:51.691Z,7844
2023-01-18T12:21:00.855Z,7533
2023-01-18T12:22:10.024Z,7776
2023-01-18T12:23:19.222Z,7724
2023-01-18T12:25:37.531Z,8363
2023-01-18T12:26:46.782Z,7522
2023-01-18T12:27:55.884Z,5594
2023-01-18T12:29:05.062Z,6376
2023-01-18T12:30:14.227Z,7362
2023-01-18T12:31:23.417Z,7258
2023-01-18T12:32:32.590Z,7322
2023-01-18T12:33:40.760Z,7053
2023-01-18T12:34:49.977Z,7380
2023-01-18T12:35:59.122Z,7313
2023-01-18T12:37:08.312Z,7342
2023-01-18T12:38:17.471Z,7197
2023-01-18T12:39:26.615Z,7042
2023-01-18T12:40:35.796Z,7325
2023-01-18T12:41:45.079Z,7057
2023-01-18T12:42:53.192Z,7143
2023-01-18T12:44:01.394Z,7269
2023-01-18T12:45:10.620Z,7134
2023-01-18T12:46:19.721Z,7353
2023-01-18T12:47:28.883Z,6874
2023-01-18T12:48:38.052Z,6951
2023-01-18T12:49:46.237Z,6947
2023-01-18T12:52:03.617Z,7096
2023-01-18T12:53:12.912Z,7041
2023-01-18T12:54:21.944Z,7249
2023-01-18T12:56:40.375Z,7363
2023-01-18T12:57:49.615Z,7105
2023-01-18T12:58:58.652Z,7101
2023-01-18T13:00:07.830Z,7006
2023-01-18T13:01:16.971Z,6849
2023-01-18T13:02:26.159Z,6969
2023-01-18T13:03:35.326Z,6819
2023-01-18T13:04:44.502Z,7028
2023-01-18T13:05:52.694Z,7375
2023-01-18T13:07:01.900Z,7366
2023-01-18T13:08:11.034Z,7843
2023-01-18T13:09:20.439Z,8257
2023-01-18T13:10:29.469Z,8184
2023-01-18T13:11:38.568Z,8125
2023-01-18T13:12:47.714Z,7975
2023-01-18T13:13:56.903Z,7853
2023-01-18T13:15:06.080Z,7761
2023-01-18T13:16:14.276Z,7885
2023-01-18T13:17:22.448Z,8004
2023-01-18T13:18:30.646Z,7887
2023-01-18T13:19:38.836Z,8081
2023-01-18T13:20:48.006Z,8134
2023-01-18T13:21:57.177Z,8238
2023-01-18T13:23:06.350Z,7564
2023-01-18T13:24:15.522Z,7523
2023-01-18T13:25:24.698Z,8631
2023-01-18T13:26:33.868Z,9514
2023-01-18T13:27:43.042Z,9291
2023-01-18T13:28:52.205Z,10138
2023-01-18T13:30:01.387Z,9329
2023-01-18T13:31:10.560Z,10026
2023-01-18T13:32:19.729Z,8135
2023-01-18T13:34:38.083Z,7066
2023-01-18T13:35:46.267Z,9173
2023-01-18T13:36:55.445Z,12121
2023-01-18T13:38:04.644Z,10529
2023-01-18T13:39:13.776Z,11393
2023-01-18T13:40:22.974Z,9298
2023-01-18T13:41:32.129Z,9508
2023-01-18T13:42:41.296Z,10644
2023-01-18T13:43:49.550Z,9132
2023-01-18T13:44:57.687Z,7467
2023-01-18T13:46:06.855Z,8439
2023-01-18T13:47:15.065Z,11757
2023-01-18T13:48:24.221Z,9199
2023-01-18T13:49:32.415Z,11263
2023-01-18T13:50:41.585Z,17509
2023-01-18T13:51:50.756Z,5892
2023-01-18T13:52:59.927Z,12687
2023-01-18T13:54:09.109Z,21443
2023-01-18T13:55:18.283Z,12627
2023-01-18T13:56:27.455Z,6852
2023-01-18T13:57:36.644Z,10458
2023-01-18T13:58:45.793Z,32387
2023-01-18T13:59:54.970Z,26381
2023-01-18T14:01:04.165Z,8568
2023-01-18T14:02:13.315Z,22242
2023-01-18T14:03:22.488Z,22174
2023-01-18T14:04:30.677Z,13174
2023-01-18T14:05:39.838Z,38422
2023-01-18T14:06:49.011Z,18631
2023-01-18T14:07:58.195Z,12478
2023-01-18T14:09:07.370Z,19942
2023-01-18T14:10:16.536Z,21025
2023-01-18T14:11:25.705Z,14103
2023-01-18T14:12:34.882Z,25549
2023-01-18T14:13:44.043Z,21495
2023-01-18T14:14:53.223Z,7460
2023-01-18T14:16:02.415Z,17931
2023-01-18T14:17:11.587Z,22654
2023-01-18T14:18:20.740Z,15724
2023-01-18T14:19:29.918Z,16223
2023-01-18T14:20:38.095Z,14239
2023-01-18T14:22:56.440Z,17738
2023-01-18T14:24:05.617Z,7501
2023-01-18T14:25:14.845Z,21516
2023-01-18T14:26:23.964Z,25158
2023-01-18T14:27:33.164Z,15499
2023-01-18T14:28:42.322Z,16098
2023-01-18T14:29:51.474Z,14801
2023-01-18T14:31:00.650Z,16093
2023-01-18T14:32:08.846Z,20275
2023-01-18T14:33:17.117Z,16294
2023-01-18T14:34:26.201Z,16375
2023-01-18T14:35:34.504Z,17965
2023-01-18T14:36:42.593Z,11959
2023-01-18T14:37:51.824Z,19883
2023-01-18T14:39:00.923Z,17166
2023-01-18T14:40:10.114Z,17763
2023-01-18T14:41:19.280Z,12315
2023-01-18T14:42:28.453Z,9328
2023-01-18T14:43:37.732Z,7914
2023-01-18T14:44:46.798Z,8492
2023-01-18T14:45:55.979Z,7959
2023-01-18T14:47:05.147Z,10651
2023-01-18T14:48:14.324Z,19541
2023-01-18T14:49:23.485Z,6565
2023-01-18T14:50:32.663Z,12125
2023-01-18T14:51:41.839Z,22609
2023-01-18T14:52:50.020Z,41274
2023-01-18T14:53:59.225Z,25636
2023-01-18T14:55:08.380Z,18795
2023-01-18T14:56:17.544Z,10275
2023-01-18T14:57:26.743Z,6251
2023-01-18T14:58:35.929Z,5231
2023-01-18T14:59:44.082Z,4625
2023-01-18T15:00:52.264Z,4018
2023-01-18T15:02:01.440Z,2631
2023-01-18T15:03:09.633Z,3349
2023-01-18T15:04:17.825Z,3813
2023-01-18T15:05:27.067Z,3139
2023-01-18T15:06:36.158Z,2279
2023-01-18T15:07:45.411Z,2833
2023-01-18T15:08:54.523Z,1687
2023-01-18T15:10:03.691Z,2084
2023-01-18T15:11:12.870Z,1833
2023-01-18T15:12:22.030Z,2904
2023-01-18T15:13:31.207Z,2062
2023-01-18T15:14:40.411Z,2656
2023-01-18T15:15:49.567Z,4438
2023-01-18T15:16:58.737Z,2587
2023-01-18T15:18:07.895Z,2321
2023-01-18T15:19:16.091Z,1995
2023-01-18T15:20:25.273Z,1707
2023-01-18T15:21:34.430Z,1912
2023-01-18T15:22:43.611Z,2093
2023-01-18T15:23:52.812Z,1685
2023-01-18T15:25:02.000Z,1418
2023-01-18T15:26:11.183Z,1555
2023-01-18T15:27:19.322Z,1581
2023-01-18T15:28:27.514Z,1413
2023-01-18T15:29:36.688Z,1327
2023-01-18T15:30:44.901Z,1276
2023-01-18T15:31:53.239Z,1223
2023-01-18T15:33:02.447Z,1171
2023-01-18T15:34:11.430Z,1141
2023-01-18T15:35:20.619Z,1079
2023-01-18T15:36:29.948Z,1006
2023-01-18T15:37:39.163Z,958
2023-01-18T15:38:48.300Z,889
2023-01-18T15:39:57.493Z,834
2023-01-18T15:41:06.597Z,795
2023-01-18T15:42:15.793Z,739
2023-01-18T15:43:24.959Z,718
2023-01-18T15:44:34.021Z,658
2023-01-18T15:45:43.320Z,590
2023-01-18T15:46:51.540Z,551
2023-01-18T15:48:00.631Z,538
2023-01-18T15:49:09.865Z,505
2023-01-18T15:50:19.073Z,450
2023-01-18T15:51:28.194Z,420
2023-01-18T15:52:37.391Z,392
2023-01-18T15:53:46.558Z,347
2023-01-18T15:54:54.714Z,306
2023-01-18T15:56:02.905Z,273
2023-01-18T15:57:12.157Z,254
2023-01-18T15:58:20.259Z,222
2023-01-18T15:59:28.496Z,207
2023-01-18T16:00:37.704Z,201
2023-01-18T16:01:46.843Z,160
2023-01-18T16:02:56.009Z,153
2023-01-18T16:04:05.172Z,125
2023-01-18T16:05:14.391Z,111
2023-01-18T16:06:23.533Z,105
2023-01-18T16:07:32.695Z,91
2023-01-18T16:08:41.692Z,72
2023-01-18T16:09:51.106Z,71
2023-01-18T16:11:00.289Z,65
2023-01-18T16:12:09.424Z,51
2023-01-18T16:13:18.507Z,38
2023-01-18T16:14:27.725Z,37
2023-01-18T16:15:35.984Z,41
2023-01-18T16:16:45.071Z,36
2023-01-18T16:17:54.220Z,35
2023-01-18T16:19:03.450Z,18